Time;durP1;ratioP1;P1;durP2;ratioP2;P2;SDS_P1;SDS_P2;PMS_P1;PMS_P2;Temp;Humidity;BMP_temperature;BMP_pressure;BME280_temperature;BME280_humidity;BME280_pressure;Samples;Min_cycle;Max_cycle;Signal;HPM_P1;HPM_P2
2023/11/15 00:01:43;;;;;;;26.77;3.63;;;;;;;12.32;100.00;100986.59;5264827;28;20024;-76
2023/11/15 00:04:14;;;;;;;23.77;3.83;;;;;;;12.38;100.00;100981.34;5263199;28;20043;-76
2023/11/15 00:06:45;;;;;;;18.77;3.55;;;;;;;12.39;100.00;100987.56;5264304;28;20054;-76
2023/11/15 00:09:15;;;;;;;19.73;3.25;;;;;;;12.38;100.00;100988.59;5263140;28;20022;-76
2023/11/15 00:11:46;;;;;;;24.77;3.75;;;;;;;12.34;100.00;100990.78;5258400;28;20091;-76
2023/11/15 00:14:16;;;;;;;24.33;4.35;;;;;;;12.35;100.00;100992.50;5258687;28;20020;-76
2023/11/15 00:16:47;;;;;;;20.02;3.47;;;;;;;12.30;100.00;100999.38;5264666;28;20031;-76
2023/11/15 00:19:20;;;;;;;23.13;3.92;;;;;;;12.30;100.00;100994.00;5267012;28;20026;-76
2023/11/15 00:21:50;;;;;;;15.13;3.35;;;;;;;12.37;100.00;100998.53;5264337;28;20055;-76
2023/11/15 00:24:21;;;;;;;18.45;3.65;;;;;;;12.24;100.00;101005.47;5263841;28;20027;-76
2023/11/15 00:26:51;;;;;;;22.60;3.80;;;;;;;12.25;100.00;101020.56;5264594;28;20053;-76
2023/11/15 00:29:22;;;;;;;19.58;3.45;;;;;;;12.22;100.00;101015.56;5263019;28;20023;-76
2023/11/15 00:31:52;;;;;;;23.17;3.60;;;;;;;12.15;100.00;101028.88;5259646;28;20028;-76
2023/11/15 00:34:23;;;;;;;28.80;3.50;;;;;;;12.12;100.00;101024.66;5264325;28;20032;-76
2023/11/15 00:36:53;;;;;;;34.00;4.43;;;;;;;12.16;100.00;101026.00;5264092;28;20096;-76
2023/11/15 00:39:23;;;;;;;25.40;3.97;;;;;;;12.21;100.00;101030.03;5260504;28;20024;-76
2023/11/15 00:41:54;;;;;;;26.23;3.72;;;;;;;12.21;100.00;101030.88;5263724;28;20024;-75
2023/11/15 00:44:24;;;;;;;23.48;4.05;;;;;;;12.09;100.00;101035.75;5263821;28;20081;-76
2023/11/15 00:46:56;;;;;;;28.70;4.65;;;;;;;12.10;100.00;101028.53;5266360;28;20062;-76
2023/11/15 00:49:26;;;;;;;18.77;3.58;;;;;;;12.02;100.00;101042.00;5265988;28;20201;-76
2023/11/15 00:51:57;;;;;;;17.95;3.47;;;;;;;11.94;100.00;101037.47;5263711;28;20122;-75
2023/11/15 00:54:27;;;;;;;22.45;3.65;;;;;;;11.93;100.00;101055.44;5263910;28;20047;-75
2023/11/15 00:56:58;;;;;;;22.50;4.32;;;;;;;11.90;100.00;101049.59;5263550;28;20119;-76
2023/11/15 00:59:36;;;;;;;17.50;4.15;;;;;;;11.83;100.00;101057.47;5263129;28;20656;-76
2023/11/15 01:02:07;;;;;;;19.27;3.47;;;;;;;11.85;100.00;101060.00;5261656;28;20020;-76
2023/11/15 01:04:39;;;;;;;25.58;3.90;;;;;;;11.82;100.00;101066.53;5263490;28;20016;-76
2023/11/15 01:07:09;;;;;;;19.48;3.80;;;;;;;11.70;100.00;101069.69;5264222;28;20481;-76
2023/11/15 01:09:40;;;;;;;17.35;3.42;;;;;;;11.81;100.00;101074.75;5260016;28;20020;-76
2023/11/15 01:12:10;;;;;;;21.45;3.88;;;;;;;11.73;100.00;101080.97;5266166;28;20028;-76
2023/11/15 01:14:41;;;;;;;32.25;3.92;;;;;;;11.73;100.00;101074.75;5263430;28;20016;-76
2023/11/15 01:17:11;;;;;;;23.92;3.63;;;;;;;11.67;100.00;101082.47;5263797;28;20054;-76
2023/11/15 01:19:43;;;;;;;21.17;3.47;;;;;;;11.61;100.00;101080.47;5260254;28;20329;-76
2023/11/15 01:22:13;;;;;;;27.25;4.47;;;;;;;11.64;100.00;101090.84;5263478;28;20068;-76
2023/11/15 01:24:44;;;;;;;26.95;3.72;;;;;;;11.70;100.00;101100.13;5265684;28;20546;-76
2023/11/15 01:27:14;;;;;;;29.58;3.83;;;;;;;11.72;100.00;101108.84;5262726;28;20469;-76
2023/11/15 01:29:44;;;;;;;24.58;4.50;;;;;;;11.71;100.00;101109.03;5265427;28;20020;-76
2023/11/15 01:32:15;;;;;;;26.67;4.05;;;;;;;11.68;100.00;101115.56;5265324;28;20170;-76
2023/11/15 01:34:45;;;;;;;19.15;3.63;;;;;;;11.70;100.00;101113.56;5265459;28;20574;-75
2023/11/15 01:37:16;;;;;;;20.98;3.88;;;;;;;11.70;100.00;101123.44;5269943;28;20032;-76
2023/11/15 01:39:48;;;;;;;28.88;6.18;;;;;;;11.67;100.00;101117.41;5263086;28;20023;-76
2023/11/15 01:42:18;;;;;;;24.42;3.63;;;;;;;11.66;100.00;101125.66;5268017;28;20072;-76
2023/11/15 01:44:50;;;;;;;26.50;4.20;;;;;;;11.66;100.00;101125.66;5265668;28;20404;-76
2023/11/15 01:47:21;;;;;;;23.20;4.35;;;;;;;11.66;100.00;101131.84;5264567;28;20016;-76
2023/11/15 01:49:51;;;;;;;24.33;3.78;;;;;;;11.62;100.00;101130.50;5266599;28;20542;-76
2023/11/15 01:52:22;;;;;;;24.75;4.63;;;;;;;11.61;100.00;101130.69;5270565;28;20392;-76
2023/11/15 01:54:55;;;;;;;18.80;3.28;;;;;;;11.55;100.00;101131.34;5270213;28;20035;-76
2023/11/15 01:57:26;;;;;;;28.73;3.70;;;;;;;11.58;100.00;101144.44;5273087;28;20027;-76
2023/11/15 01:59:59;;;;;;;27.55;4.35;;;;;;;11.63;100.00;101150.16;5269320;28;20034;-76
2023/11/15 02:02:30;;;;;;;25.05;4.43;;;;;;;11.52;100.00;101154.00;5263305;28;20064;-76
2023/11/15 02:05:01;;;;;;;26.80;3.55;;;;;;;11.52;100.00;101154.00;5266062;28;20024;-76
2023/11/15 02:07:32;;;;;;;25.13;3.45;;;;;;;11.55;100.00;101153.69;5270799;28;20020;-76
2023/11/15 02:10:04;;;;;;;21.13;3.28;;;;;;;11.48;100.00;101158.03;5267963;28;20094;-75
2023/11/15 02:12:34;;;;;;;27.17;4.03;;;;;;;11.45;100.00;101157.53;5272824;28;20088;-76
2023/11/15 02:15:05;;;;;;;31.08;4.40;;;;;;;11.44;100.00;101158.50;5270269;28;20016;-75
2023/11/15 02:17:36;;;;;;;24.73;4.70;;;;;;;11.42;100.00;101161.38;5266232;28;20035;-76
2023/11/15 02:20:08;;;;;;;30.63;4.38;;;;;;;11.44;100.00;101171.94;5264380;28;20031;-76
2023/11/15 02:22:46;;;;;;;20.67;3.95;;;;;;;11.39;100.00;101180.50;5268814;28;20028;-75
2023/11/15 02:25:18;;;;;;;29.98;3.33;;;;;;;11.32;100.00;101168.72;5262160;28;20012;-76
2023/11/15 02:27:48;;;;;;;26.83;3.92;;;;;;;11.36;100.00;101176.31;5262839;28;20103;-75
2023/11/15 02:30:19;;;;;;;26.55;4.05;;;;;;;11.38;100.00;101182.34;5263209;28;22151;-76
2023/11/15 02:32:49;;;;;;;25.80;3.83;;;;;;;11.36;100.00;101188.91;5268849;28;20107;-75
2023/11/15 02:35:20;;;;;;;22.23;4.13;;;;;;;11.32;100.00;101185.69;5269536;28;20032;-76
2023/11/15 02:37:50;;;;;;;21.83;3.90;;;;;;;11.34;100.00;101183.66;5268130;28;20405;-76
2023/11/15 02:40:20;;;;;;;23.80;3.60;;;;;;;11.41;100.00;101176.66;5268030;28;20028;-75
2023/11/15 02:42:51;;;;;;;29.40;3.80;;;;;;;11.49;100.00;101186.56;5270604;28;20020;-75
2023/11/15 02:45:22;;;;;;;19.20;4.55;;;;;;;11.55;100.00;101187.78;5261203;28;20032;-76
2023/11/15 02:47:53;;;;;;;28.85;4.32;;;;;;;11.63;100.00;101188.63;5267512;28;20702;-76
2023/11/15 02:50:27;;;;;;;25.15;3.45;;;;;;;11.61;100.00;101187.13;5268607;28;20023;-76
2023/11/15 02:52:58;;;;;;;22.40;3.22;;;;;;;11.62;100.00;101188.78;5268274;28;20027;-76
2023/11/15 02:55:29;;;;;;;32.08;4.22;;;;;;;11.72;100.00;101186.78;5265165;28;20028;-75
2023/11/15 02:58:00;;;;;;;29.17;3.53;;;;;;;11.74;100.00;101192.84;5267077;28;20057;-75
2023/11/15 03:00:31;;;;;;;19.73;3.45;;;;;;;11.73;100.00;101188.47;5266414;28;20024;-75
2023/11/15 03:03:21;;;;;;;21.60;3.17;;;;;;;11.84;100.00;101187.34;5252004;28;20042;-75
2023/11/15 03:05:52;;;;;;;27.15;3.50;;;;;;;11.77;100.00;101192.50;5267762;28;20020;-75
2023/11/15 03:08:22;;;;;;;20.50;3.95;;;;;;;11.87;100.00;101209.38;5266213;28;20023;-76
2023/11/15 03:10:53;;;;;;;19.35;3.38;;;;;;;11.87;100.00;101187.84;5266208;28;20508;-76
2023/11/15 03:13:24;;;;;;;31.58;3.83;;;;;;;11.91;100.00;101191.06;5265161;28;20031;-75
2023/11/15 03:15:55;;;;;;;26.35;4.03;;;;;;;11.90;100.00;101197.44;5267642;28;20099;-76
2023/11/15 03:18:26;;;;;;;23.95;3.60;;;;;;;11.89;100.00;101195.75;5267976;28;20387;-75
2023/11/15 03:20:58;;;;;;;25.50;3.45;;;;;;;11.95;100.00;101197.78;5266054;28;20065;-76
2023/11/15 03:23:28;;;;;;;28.65;5.25;;;;;;;11.93;100.00;101199.78;5257324;28;20384;-75
2023/11/15 03:25:59;;;;;;;21.27;3.53;;;;;;;12.03;100.00;101210.38;5259499;28;20016;-75
2023/11/15 03:28:31;;;;;;;22.08;3.97;;;;;;;11.98;100.00;101204.66;5265284;28;20020;-76
2023/11/15 03:31:01;;;;;;;25.92;3.35;;;;;;;11.95;100.00;101205.84;5265095;28;20527;-75
2023/11/15 03:33:33;;;;;;;26.77;3.80;;;;;;;11.95;100.00;101210.38;5265276;28;20118;-75
2023/11/15 03:36:04;;;;;;;30.23;4.03;;;;;;;11.96;100.00;101222.81;5259678;28;20029;-76
2023/11/15 03:38:35;;;;;;;34.78;4.95;;;;;;;12.00;100.00;101216.94;5256244;28;20034;-76
2023/11/15 03:41:05;;;;;;;19.60;3.70;;;;;;;11.96;100.00;101215.59;5257386;28;20103;-75
2023/11/15 03:43:40;;;;;;;27.20;4.05;;;;;;;11.99;100.00;101215.25;5266299;28;20107;-75
2023/11/15 03:46:10;;;;;;;25.58;4.07;;;;;;;11.93;100.00;101222.13;5265524;28;20473;-76
2023/11/15 03:48:41;;;;;;;24.35;3.53;;;;;;;11.98;100.00;101229.72;5264726;28;20027;-75
2023/11/15 03:51:11;;;;;;;26.05;3.35;;;;;;;11.97;100.00;101229.88;5266370;28;20099;-75
2023/11/15 03:53:41;;;;;;;19.08;3.20;;;;;;;12.05;100.00;101225.34;5264640;28;20496;-75
2023/11/15 03:56:12;;;;;;;20.77;3.42;;;;;;;12.07;100.00;101230.56;5265779;28;20032;-75
2023/11/15 03:58:43;;;;;;;20.38;4.18;;;;;;;12.06;100.00;101245.03;5254800;28;20701;-75
2023/11/15 04:01:14;;;;;;;19.98;3.53;;;;;;;11.93;100.00;101230.19;5263580;28;20024;-75
2023/11/15 04:03:45;;;;;;;17.40;3.38;;;;;;;12.03;100.00;101232.72;5264837;28;20519;-75
2023/11/15 04:06:16;;;;;;;24.00;3.70;;;;;;;12.04;100.00;101241.63;5265001;28;20024;-76
2023/11/15 04:08:47;;;;;;;19.15;3.15;;;;;;;11.97;100.00;101238.78;5260109;28;20111;-75
2023/11/15 04:11:17;;;;;;;25.63;4.03;;;;;;;12.06;100.00;101245.03;5263911;28;20110;-75
2023/11/15 04:13:47;;;;;;;23.70;3.53;;;;;;;11.95;100.00;101242.63;5264565;28;20027;-75
2023/11/15 04:16:18;;;;;;;25.08;4.18;;;;;;;12.03;100.00;101246.19;5263578;28;20485;-76
2023/11/15 04:18:49;;;;;;;18.67;3.70;;;;;;;12.04;100.00;101253.22;5264853;28;20385;-76
2023/11/15 04:21:19;;;;;;;18.73;3.47;;;;;;;12.03;100.00;101256.94;5265146;28;20110;-75
2023/11/15 04:23:50;;;;;;;16.33;3.03;;;;;;;11.93;100.00;101258.94;5266687;28;20024;-75
2023/11/15 04:26:22;;;;;;;20.27;3.65;;;;;;;11.96;100.00;101272.06;5258439;28;20031;-75
2023/11/15 04:28:52;;;;;;;19.90;3.08;;;;;;;11.98;100.00;101261.97;5261821;28;20100;-75
2023/11/15 04:31:24;;;;;;;24.33;3.80;;;;;;;11.95;100.00;101267.69;5262768;28;20035;-75
2023/11/15 04:33:55;;;;;;;30.58;3.97;;;;;;;11.91;100.00;101269.03;5257397;28;20028;-76
2023/11/15 04:36:25;;;;;;;23.83;3.92;;;;;;;11.93;100.00;101267.84;5264967;28;20026;-75
2023/11/15 04:38:56;;;;;;;23.50;3.75;;;;;;;11.79;100.00;101273.81;5261822;28;20110;-75
2023/11/15 04:41:27;;;;;;;23.65;3.40;;;;;;;11.79;100.00;101273.81;5264989;28;20027;-75
2023/11/15 04:43:58;;;;;;;35.95;3.50;;;;;;;11.71;100.00;101267.59;5263760;28;20027;-75
2023/11/15 04:46:28;;;;;;;24.27;3.45;;;;;;;11.77;100.00;101266.94;5264817;28;20015;-75
2023/11/15 04:48:59;;;;;;;20.00;3.95;;;;;;;11.73;100.00;101276.31;5260090;28;20107;-75
2023/11/15 04:51:29;;;;;;;19.65;3.83;;;;;;;11.74;100.00;101283.38;5264343;28;20020;-75
2023/11/15 04:54:00;;;;;;;20.75;4.20;;;;;;;11.73;100.00;101287.91;5263937;28;20031;-75
2023/11/15 04:56:30;;;;;;;34.70;5.20;;;;;;;11.66;100.00;101300.34;5264123;28;20024;-75
2023/11/15 04:59:01;;;;;;;21.42;3.83;;;;;;;11.75;100.00;101291.31;5262027;28;20473;-75
2023/11/15 05:01:32;;;;;;;28.98;4.88;;;;;;;11.66;100.00;101301.16;5260343;28;20016;-75
2023/11/15 05:04:02;;;;;;;26.02;3.75;;;;;;;11.68;100.00;101296.47;5261361;28;20521;-75
2023/11/15 05:06:33;;;;;;;27.17;3.65;;;;;;;11.67;100.00;101292.09;5263424;28;20094;-75
2023/11/15 05:09:04;;;;;;;30.05;4.22;;;;;;;11.64;100.00;101297.78;5262926;28;20027;-75
2023/11/15 05:11:35;;;;;;;18.45;4.38;;;;;;;11.62;100.00;101312.41;5258561;28;20095;-75
2023/11/15 05:14:06;;;;;;;24.17;3.50;;;;;;;11.58;100.00;101311.03;5259058;28;20114;-75
2023/11/15 05:16:37;;;;;;;32.58;4.55;;;;;;;11.57;100.00;101310.19;5263624;28;20016;-75
2023/11/15 05:19:08;;;;;;;30.20;4.47;;;;;;;11.61;100.00;101319.63;5263219;28;20035;-75
2023/11/15 05:21:38;;;;;;;20.13;3.30;;;;;;;11.55;100.00;101317.59;5263321;28;20466;-75
2023/11/15 05:24:09;;;;;;;23.65;3.22;;;;;;;11.61;100.00;101316.94;5263525;28;20153;-75
2023/11/15 05:26:39;;;;;;;18.08;3.67;;;;;;;11.53;100.00;101321.44;5263918;28;20017;-75
2023/11/15 05:29:10;;;;;;;24.20;3.58;;;;;;;11.47;100.00;101320.22;5266720;28;20058;-76
2023/11/15 05:31:40;;;;;;;25.27;3.97;;;;;;;11.46;100.00;101320.41;5267926;28;20039;-75
2023/11/15 05:34:10;;;;;;;19.25;3.10;;;;;;;11.39;100.00;101322.88;5263260;28;20056;-75
2023/11/15 05:36:42;;;;;;;22.75;5.20;;;;;;;11.49;100.00;101314.69;5263504;28;20017;-75
2023/11/15 05:39:12;;;;;;;32.75;11.80;;;;;;;11.49;100.00;101323.59;5260950;28;20028;-76
2023/11/15 05:41:43;;;;;;;38.15;12.63;;;;;;;11.53;100.00;101321.44;5268157;28;20035;-75
2023/11/15 05:44:13;;;;;;;27.05;9.40;;;;;;;11.52;100.00;101323.28;5267846;28;20175;-75
2023/11/15 05:46:44;;;;;;;23.33;4.72;;;;;;;11.48;100.00;101326.44;5260488;28;20028;-75
2023/11/15 05:49:14;;;;;;;24.58;7.50;;;;;;;11.46;100.00;101323.09;5266212;28;20016;-75
2023/11/15 05:51:45;;;;;;;36.20;15.43;;;;;;;11.45;100.00;101321.41;5268180;28;20016;-75
2023/11/15 05:54:16;;;;;;;41.72;11.43;;;;;;;11.44;100.00;101325.91;5267464;28;20032;-75
2023/11/15 05:56:46;;;;;;;33.95;14.43;;;;;;;11.44;100.00;101331.28;5265035;28;20101;-75
2023/11/15 05:59:17;;;;;;;26.80;7.57;;;;;;;11.42;100.00;101336.00;5267113;28;20042;-75
2023/11/15 06:01:47;;;;;;;27.85;5.05;;;;;;;11.39;100.00;101336.28;5265301;28;20008;-75
2023/11/15 06:04:18;;;;;;;23.45;6.93;;;;;;;11.46;100.00;101339.22;5267906;28;20044;-75
2023/11/15 06:06:48;;;;;;;30.55;6.93;;;;;;;11.43;100.00;101336.84;5267800;28;20427;-75
2023/11/15 06:09:19;;;;;;;37.05;13.63;;;;;;;11.36;100.00;101342.84;5265559;28;20102;-75
2023/11/15 06:11:49;;;;;;;28.83;6.57;;;;;;;11.37;100.00;101336.47;5267858;28;20032;-75
2023/11/15 06:14:20;;;;;;;22.70;6.40;;;;;;;11.43;100.00;101343.03;5267077;28;20103;-75
2023/11/15 06:16:50;;;;;;;36.42;11.18;;;;;;;11.45;100.00;101345.59;5267537;28;20030;-75
2023/11/15 06:19:23;;;;;;;71.07;36.85;;;;;;;11.55;100.00;101347.16;5266029;28;20380;-76
2023/11/15 06:21:53;;;;;;;31.80;17.60;;;;;;;11.61;100.00;101356.41;5266993;28;20042;-75
2023/11/15 06:24:24;;;;;;;25.80;4.88;;;;;;;11.64;100.00;101364.97;5262191;28;20100;-75
2023/11/15 06:26:54;;;;;;;29.70;5.55;;;;;;;11.69;100.00;101359.13;5267472;28;20020;-75
2023/11/15 06:29:25;;;;;;;24.65;4.95;;;;;;;11.79;100.00;101359.84;5268439;28;20504;-75
2023/11/15 06:31:55;;;;;;;27.83;10.93;;;;;;;11.81;100.00;101363.22;5267493;28;20087;-75
2023/11/15 06:34:26;;;;;;;29.70;4.22;;;;;;;11.78;100.00;101366.22;5262923;28;20154;-75
2023/11/15 06:36:58;;;;;;;33.92;4.05;;;;;;;11.74;100.00;101369.38;5261560;28;20075;-75
2023/11/15 06:39:29;;;;;;;23.70;5.43;;;;;;;11.85;100.00;101374.53;5261411;28;20040;-75
2023/11/15 06:41:59;;;;;;;23.15;4.05;;;;;;;11.93;100.00;101377.25;5260773;28;20058;-75
2023/11/15 06:44:29;;;;;;;20.90;4.63;;;;;;;11.89;100.00;101375.88;5262432;28;20446;-75
2023/11/15 06:47:01;;;;;;;27.90;3.90;;;;;;;11.88;100.00;101384.94;5265002;28;20457;-75
2023/11/15 06:49:32;;;;;;;26.25;3.85;;;;;;;11.83;100.00;101384.59;5275513;28;20024;-75
2023/11/15 06:52:03;;;;;;;28.35;4.38;;;;;;;11.88;100.00;101388.47;5263688;28;20124;-74
2023/11/15 06:54:33;;;;;;;19.77;3.28;;;;;;;11.83;100.00;101395.34;5279729;28;20027;-75
2023/11/15 06:57:06;;;;;;;29.25;3.72;;;;;;;11.80;100.00;101401.88;5269275;28;20019;-75
2023/11/15 06:59:36;;;;;;;23.00;3.78;;;;;;;11.72;100.00;101412.56;5254732;28;20109;-75
2023/11/15 07:02:07;;;;;;;150.55;53.33;;;;;;;11.71;100.00;101412.75;5277212;28;20051;-75
2023/11/15 07:04:37;;;;;;;71.85;22.13;;;;;;;11.64;100.00;101407.97;5272161;28;20018;-75
2023/11/15 07:07:09;;;;;;;154.70;57.53;;;;;;;11.67;100.00;101410.34;5268804;28;20032;-75
2023/11/15 07:09:40;;;;;;;37.38;10.65;;;;;;;11.58;100.00;101410.47;5265514;28;20018;-76
2023/11/15 07:12:11;;;;;;;38.63;9.98;;;;;;;11.51;100.00;101412.97;5271505;28;20102;-75
2023/11/15 07:14:44;;;;;;;47.58;17.55;;;;;;;11.55;100.00;101421.56;5266789;28;20020;-75
2023/11/15 07:17:15;;;;;;;51.05;26.02;;;;;;;11.44;100.00;101405.66;5268422;28;20029;-75
2023/11/15 07:19:47;;;;;;;17.90;6.20;;;;;;;11.48;100.00;101413.25;5270168;28;20027;-75
2023/11/15 07:22:18;;;;;;;25.83;4.88;;;;;;;11.47;100.00;101411.59;5270031;28;20039;-75
2023/11/15 07:24:51;;;;;;;27.73;5.18;;;;;;;11.48;100.00;101413.25;5274706;28;20021;-75
2023/11/15 07:27:24;;;;;;;29.42;4.65;;;;;;;11.47;100.00;101416.97;5267247;28;20140;-75
2023/11/15 07:29:54;;;;;;;24.95;3.80;;;;;;;11.51;100.00;101420.19;5274628;28;20043;-75
2023/11/15 07:32:25;;;;;;;19.73;3.75;;;;;;;11.64;100.00;101429.47;5265298;28;20125;-75
2023/11/15 07:34:57;;;;;;;25.83;3.92;;;;;;;11.73;100.00;101432.22;5266485;28;20024;-75
2023/11/15 07:37:27;;;;;;;34.65;4.05;;;;;;;11.84;100.00;101429.28;5271670;28;20050;-75
2023/11/15 07:39:58;;;;;;;32.08;3.92;;;;;;;11.86;100.00;101429.97;5268932;28;20020;-75
2023/11/15 07:42:29;;;;;;;18.67;3.58;;;;;;;11.93;100.00;101426.47;5265176;28;20161;-75
2023/11/15 07:45:02;;;;;;;29.52;6.40;;;;;;;12.04;100.00;101436.09;5265021;28;20394;-76
2023/11/15 07:47:34;;;;;;;25.48;3.88;;;;;;;12.21;100.00;101441.56;5268835;28;20032;-75
2023/11/15 07:50:05;;;;;;;20.52;4.30;;;;;;;12.39;100.00;101447.66;5266866;28;20028;-75
2023/11/15 07:52:36;;;;;;;26.50;4.25;;;;;;;12.43;100.00;101444.47;5269817;28;20027;-75
2023/11/15 07:55:07;;;;;;;23.88;3.45;;;;;;;12.45;100.00;101452.41;5267772;28;21237;-75
2023/11/15 07:57:38;;;;;;;22.02;3.50;;;;;;;12.74;100.00;101451.13;5271915;28;20034;-75
2023/11/15 08:00:11;;;;;;;29.33;3.90;;;;;;;12.78;100.00;101455.16;5273314;28;20541;-75
2023/11/15 08:02:42;;;;;;;17.80;3.38;;;;;;;12.92;100.00;101462.59;5274418;28;20062;-75
2023/11/15 08:05:12;;;;;;;22.30;3.35;;;;;;;13.05;100.00;101468.34;5264861;28;20019;-75
2023/11/15 08:07:43;;;;;;;32.33;5.63;;;;;;;13.03;100.00;101472.19;5267863;28;20028;-75
2023/11/15 08:10:14;;;;;;;21.08;3.90;;;;;;;12.95;100.00;101470.31;5268528;28;20118;-75
2023/11/15 08:12:49;;;;;;;19.02;3.50;;;;;;;13.01;100.00;101466.16;5265983;28;20023;-75
2023/11/15 08:15:20;;;;;;;23.92;4.07;;;;;;;13.29;100.00;101472.91;5264483;28;20035;-75
2023/11/15 08:17:51;;;;;;;25.92;5.10;;;;;;;13.20;100.00;101477.44;5271750;28;20027;-75
2023/11/15 08:20:21;;;;;;;20.10;3.20;;;;;;;13.16;100.00;101473.41;5268953;28;20073;-76
2023/11/15 08:22:52;;;;;;;32.30;4.70;;;;;;;12.96;100.00;101475.56;5267842;28;20045;-75
2023/11/15 08:25:22;;;;;;;22.35;3.75;;;;;;;12.75;100.00;101479.72;5264204;28;20082;-75
2023/11/15 08:27:53;;;;;;;26.48;3.50;;;;;;;12.80;100.00;101485.44;5262086;28;20035;-75
2023/11/15 08:30:23;;;;;;;18.55;4.65;;;;;;;12.84;100.00;101484.13;5261063;28;20035;-75
2023/11/15 08:32:55;;;;;;;24.30;3.35;;;;;;;12.92;100.00;101492.22;5265935;28;20091;-75
2023/11/15 08:35:26;;;;;;;20.77;3.92;;;;;;;13.12;100.00;101481.97;5267218;28;20032;-75
2023/11/15 08:37:56;;;;;;;25.55;5.07;;;;;;;13.46;100.00;101484.53;5263563;28;20393;-75
2023/11/15 08:40:27;;;;;;;12.82;2.42;;;;;;;13.36;100.00;101481.19;5262552;28;20051;-75
2023/11/15 08:42:58;;;;;;;24.25;4.43;;;;;;;13.41;100.00;101492.28;5264332;28;20028;-75
2023/11/15 08:45:28;;;;;;;24.95;4.05;;;;;;;13.37;100.00;101488.25;5263548;28;20548;-75
2023/11/15 08:48:00;;;;;;;50.85;32.30;;;;;;;13.57;100.00;101486.88;5265980;28;20027;-75
2023/11/15 08:50:31;;;;;;;17.88;4.75;;;;;;;13.74;100.00;101485.00;5259463;28;20024;-75
2023/11/15 08:53:01;;;;;;;32.90;18.42;;;;;;;13.90;100.00;101498.44;5264095;28;20047;-76
2023/11/15 08:55:32;;;;;;;16.75;3.17;;;;;;;14.11;100.00;101491.66;5267016;28;20107;-76
2023/11/15 08:58:05;;;;;;;23.30;4.45;;;;;;;14.23;100.00;101488.41;5261688;28;20016;-76
2023/11/15 09:00:37;;;;;;;13.90;3.78;;;;;;;14.40;100.00;101486.47;5264946;28;20032;-76
2023/11/15 09:03:08;;;;;;;20.67;4.47;;;;;;;14.48;100.00;101494.56;5263971;28;20024;-75
2023/11/15 09:05:43;;;;;;;24.00;5.22;;;;;;;14.37;100.00;101497.63;5268105;28;20081;-76
2023/11/15 09:08:14;;;;;;;25.05;4.32;;;;;;;14.19;100.00;101495.16;5263046;28;20035;-75
2023/11/15 09:10:44;;;;;;;17.23;3.50;;;;;;;14.03;100.00;101492.50;5263381;28;20036;-75
2023/11/15 09:13:15;;;;;;;23.80;3.83;;;;;;;13.91;100.00;101493.91;5263670;28;20035;-75
2023/11/15 09:15:46;;;;;;;22.92;3.63;;;;;;;13.94;100.00;101507.03;5262486;28;20028;-75
2023/11/15 09:18:23;;;;;;;27.48;3.95;;;;;;;13.87;100.00;101501.50;5266759;28;20024;-75
2023/11/15 09:20:54;;;;;;;19.50;3.80;;;;;;;13.97;100.00;101495.91;5258483;28;20036;-76
2023/11/15 09:23:25;;;;;;;21.45;4.63;;;;;;;13.89;100.00;101495.91;5260927;28;20509;-76
2023/11/15 09:25:58;;;;;;;26.30;6.07;;;;;;;13.70;100.00;101495.31;5261291;28;20501;-76
2023/11/15 09:28:30;;;;;;;97.75;59.42;;;;;;;13.52;100.00;101499.19;5260309;28;20060;-75
2023/11/15 09:31:00;;;;;;;65.63;56.67;;;;;;;13.43;100.00;101499.19;5263734;28;20078;-75
2023/11/15 09:33:31;;;;;;;33.53;17.40;;;;;;;13.54;100.00;101499.84;5262897;28;20115;-75
2023/11/15 09:36:06;;;;;;;24.70;8.27;;;;;;;13.39;100.00;101505.91;5263703;28;20189;-75
2023/11/15 09:38:39;;;;;;;17.77;5.20;;;;;;;13.53;100.00;101501.69;5262584;28;20032;-76
2023/11/15 09:41:12;;;;;;;26.92;5.65;;;;;;;13.54;100.00;101500.69;5263763;28;20377;-75
2023/11/15 09:43:51;;;;;;;18.70;4.63;;;;;;;13.49;100.00;101503.06;5263308;28;20099;-75
2023/11/15 09:46:22;;;;;;;14.48;3.60;;;;;;;13.45;100.00;101501.69;5263168;28;20036;-75
2023/11/15 09:48:54;;;;;;;16.15;4.15;;;;;;;13.46;100.00;101498.00;5261300;28;20072;-75
2023/11/15 09:51:25;;;;;;;23.45;5.28;;;;;;;13.46;100.00;101503.41;5260709;28;20027;-75
2023/11/15 09:53:56;;;;;;;20.50;5.07;;;;;;;13.47;100.00;101502.38;5271172;28;20392;-75
2023/11/15 09:56:27;;;;;;;21.80;4.13;;;;;;;13.33;100.00;101511.16;5265850;28;20035;-76
2023/11/15 09:58:57;;;;;;;20.77;4.70;;;;;;;13.43;100.00;101511.81;5273409;28;20463;-75
2023/11/15 10:01:28;;;;;;;23.40;5.35;;;;;;;13.51;100.00;101516.38;5267215;28;20048;-75
2023/11/15 10:03:59;;;;;;;24.50;5.70;;;;;;;13.46;100.00;101519.56;5269229;28;20015;-75
2023/11/15 10:06:40;;;;;;;26.15;4.43;;;;;;;13.38;100.00;101531.19;5267763;28;20028;-75
2023/11/15 10:09:12;;;;;;;33.50;10.75;;;;;;;13.53;100.00;101534.06;5264176;28;20020;-75
2023/11/15 10:11:48;;;;;;;27.48;5.75;;;;;;;13.61;100.00;101533.22;5261725;28;20619;-75
2023/11/15 10:14:21;;;;;;;25.08;6.72;;;;;;;13.49;100.00;101519.22;5267093;28;20394;-75
2023/11/15 10:16:51;;;;;;;40.90;20.30;;;;;;;13.56;100.00;101531.03;5276284;28;20024;-75
2023/11/15 10:19:26;;;;;;;110.07;58.88;;;;;;;13.55;100.00;101528.47;5273802;28;20031;-75
2023/11/15 10:22:00;;;;;;;51.83;32.22;;;;;;;13.73;100.00;101537.25;5267975;28;20578;-75
2023/11/15 10:24:33;;;;;;;42.33;12.83;;;;;;;13.71;100.00;101534.72;5270448;28;20042;-75
2023/11/15 10:27:10;;;;;;;30.58;8.57;;;;;;;13.63;100.00;101525.78;5270917;28;20039;-75
2023/11/15 10:29:47;;;;;;;24.38;7.13;;;;;;;13.66;100.00;101515.53;5267003;28;20051;-75
2023/11/15 10:32:21;;;;;;;22.23;7.65;;;;;;;13.59;100.00;101530.69;5268885;28;20607;-75
2023/11/15 10:34:51;;;;;;;34.67;9.80;;;;;;;13.63;100.00;101525.78;5265740;28;20082;-75
2023/11/15 10:37:23;;;;;;;26.35;6.72;;;;;;;13.70;100.00;101538.44;5268138;28;20032;-75
2023/11/15 10:39:53;;;;;;;14.93;4.78;;;;;;;13.86;100.00;101536.75;5273818;28;20020;-75
2023/11/15 10:42:28;;;;;;;31.23;12.10;;;;;;;14.01;100.00;101537.72;5270292;28;20556;-75
2023/11/15 10:45:07;;;;;;;17.52;7.93;;;;;;;14.15;100.00;101536.97;5270190;28;20029;-75
2023/11/15 10:47:46;;;;;;;22.20;5.07;;;;;;;14.09;100.00;101539.53;5265111;28;20020;-75
2023/11/15 10:50:21;;;;;;;22.00;8.55;;;;;;;14.08;100.00;101544.09;5265121;28;20028;-76
2023/11/15 10:52:52;;;;;;;21.60;9.18;;;;;;;14.18;100.00;101547.44;5269190;28;20519;-75
2023/11/15 10:55:25;;;;;;;28.52;8.85;;;;;;;14.36;100.00;101549.94;5266003;28;20489;-75
2023/11/15 10:58:02;;;;;;;26.58;9.15;;;;;;;14.49;100.00;101558.34;5267502;28;20028;-75
2023/11/15 11:00:34;;;;;;;22.38;8.77;;;;;;;14.68;100.00;101550.84;5269233;28;20107;-75
2023/11/15 11:03:05;;;;;;;27.33;15.85;;;;;;;14.74;100.00;101550.13;5269131;28;20023;-75
2023/11/15 11:05:55;;;;;;;44.30;33.03;;;;;;;14.73;100.00;101546.59;5269289;28;20039;-75
2023/11/15 11:08:30;;;;;;;19.17;6.47;;;;;;;14.70;100.00;101562.28;5262876;28;20016;-75
2023/11/15 11:11:08;;;;;;;16.23;5.50;;;;;;;14.54;100.00;101557.81;5269634;28;20110;-75
2023/11/15 11:13:40;;;;;;;19.55;5.88;;;;;;;14.45;100.00;101551.56;5267304;28;20485;-75
2023/11/15 11:16:30;;;;;;;16.95;3.83;;;;;;;14.28;100.00;101547.25;5267681;28;20039;-75
2023/11/15 11:19:16;;;;;;;19.23;3.80;;;;;;;14.21;100.00;101546.28;5251456;28;20768;-76
2023/11/15 11:22:03;;;;;;;14.85;3.58;;;;;;;14.38;100.00;101553.28;5264421;28;20019;-75
2023/11/15 11:24:42;;;;;;;12.27;5.32;;;;;;;14.35;100.00;101539.28;5263750;28;20016;-75
2023/11/15 11:27:16;;;;;;;24.42;14.43;;;;;;;14.43;100.00;101534.72;5265158;28;20027;-76
2023/11/15 11:30:11;;;;;;;17.20;8.30;;;;;;;14.37;100.00;101534.56;5265193;28;20031;-76